sensor_id;sensor_type;location;lat;lon;timestamp;pressure;altitude;pressure_sealevel;temperature;humidity
52032;BME280;38044;45.148;39.604;2023-04-05T00:01:34;100117.00;;;12.18;63.85
52032;BME280;38044;45.148;39.604;2023-04-05T00:04:03;100045.19;;;11.65;63.93
52032;BME280;38044;45.148;39.604;2023-04-05T00:06:29;100180.38;;;12.56;63.77
52032;BME280;38044;45.148;39.604;2023-04-05T00:08:57;100075.22;;;11.90;63.95
52032;BME280;38044;45.148;39.604;2023-04-05T00:11:24;100177.84;;;12.51;64.20
52032;BME280;38044;45.148;39.604;2023-04-05T00:13:50;100173.09;;;12.48;64.03
52032;BME280;38044;45.148;39.604;2023-04-05T00:16:17;100123.53;;;12.17;64.02
52032;BME280;38044;45.148;39.604;2023-04-05T00:18:44;100155.78;;;12.40;64.46
52032;BME280;38044;45.148;39.604;2023-04-05T00:21:11;100019.47;;;11.50;64.21
52032;BME280;38044;45.148;39.604;2023-04-05T00:23:40;100148.47;;;12.40;64.13
52032;BME280;38044;45.148;39.604;2023-04-05T00:26:06;100154.19;;;12.39;64.14
52032;BME280;38044;45.148;39.604;2023-04-05T00:28:33;100143.88;;;12.41;63.92
52032;BME280;38044;45.148;39.604;2023-04-05T00:31:00;100110.22;;;12.21;63.89
52032;BME280;38044;45.148;39.604;2023-04-05T00:33:25;100127.06;;;12.35;63.77
52032;BME280;38044;45.148;39.604;2023-04-05T00:35:51;100123.88;;;12.25;63.66
52032;BME280;38044;45.148;39.604;2023-04-05T00:38:17;100131.81;;;12.38;63.55
52032;BME280;38044;45.148;39.604;2023-04-05T00:40:43;100148.00;;;12.38;63.59
52032;BME280;38044;45.148;39.604;2023-04-05T00:43:09;100153.41;;;12.47;63.39
52032;BME280;38044;45.148;39.604;2023-04-05T00:45:35;100053.22;;;11.57;63.50
52032;BME280;38044;45.148;39.604;2023-04-05T00:48:01;100320.16;;;12.31;63.78
52032;BME280;38044;45.148;39.604;2023-04-05T00:50:27;100241.50;;;11.39;65.27
52032;BME280;38044;45.148;39.604;2023-04-05T00:52:56;100322.00;;;12.22;65.49
52032;BME280;38044;45.148;39.604;2023-04-05T00:55:23;100353.97;;;12.15;65.61
52032;BME280;38044;45.148;39.604;2023-04-05T00:57:49;100262.94;;;11.67;64.85
52032;BME280;38044;45.148;39.604;2023-04-05T01:00:15;100328.59;;;12.38;64.40
52032;BME280;38044;45.148;39.604;2023-04-05T01:02:48;100206.16;;;11.55;64.24
52032;BME280;38044;45.148;39.604;2023-04-05T01:08:33;100309.09;;;12.73;63.38
52032;BME280;38044;45.148;39.604;2023-04-05T01:11:03;100275.94;;;12.72;63.49
52032;BME280;38044;45.148;39.604;2023-04-05T01:13:31;100266.91;;;12.68;63.49
52032;BME280;38044;45.148;39.604;2023-04-05T01:15:57;100225.91;;;12.49;63.75
52032;BME280;38044;45.148;39.604;2023-04-05T01:18:24;100213.31;;;12.35;63.96
52032;BME280;38044;45.148;39.604;2023-04-05T01:23:53;100127.56;;;11.75;63.91
52032;BME280;38044;45.148;39.604;2023-04-05T01:34:39;100225.31;;;12.60;64.53
52032;BME280;38044;45.148;39.604;2023-04-05T01:37:11;100169.56;;;12.38;64.42
52032;BME280;38044;45.148;39.604;2023-04-05T01:39:39;100156.72;;;12.35;64.42
52032;BME280;38044;45.148;39.604;2023-04-05T01:42:06;100166.56;;;12.40;64.46
52032;BME280;38044;45.148;39.604;2023-04-05T01:44:33;100173.19;;;12.34;64.42
52032;BME280;38044;45.148;39.604;2023-04-05T01:46:59;100176.88;;;12.47;64.66
52032;BME280;38044;45.148;39.604;2023-04-05T01:49:25;100151.19;;;12.40;64.25
52032;BME280;38044;45.148;39.604;2023-04-05T01:51:50;100117.66;;;12.24;63.94
52032;BME280;38044;45.148;39.604;2023-04-05T01:54:16;100053.72;;;11.99;63.49
52032;BME280;38044;45.148;39.604;2023-04-05T01:56:42;100125.84;;;12.59;63.54
52032;BME280;38044;45.148;39.604;2023-04-05T01:59:08;100086.19;;;12.51;63.76
52032;BME280;38044;45.148;39.604;2023-04-05T02:01:34;100005.47;;;12.46;65.48
52032;BME280;38044;45.148;39.604;2023-04-05T02:03:59;100027.63;;;12.16;67.19
52032;BME280;38044;45.148;39.604;2023-04-05T02:06:26;100018.72;;;12.07;66.67
52032;BME280;38044;45.148;39.604;2023-04-05T02:08:52;99999.56;;;12.09;65.71
52032;BME280;38044;45.148;39.604;2023-04-05T02:11:18;100007.81;;;12.30;64.94
52032;BME280;38044;45.148;39.604;2023-04-05T02:13:45;100003.88;;;12.36;64.15
52032;BME280;38044;45.148;39.604;2023-04-05T02:16:11;99991.97;;;12.11;64.40
52032;BME280;38044;45.148;39.604;2023-04-05T02:18:37;100053.19;;;12.36;65.17
52032;BME280;38044;45.148;39.604;2023-04-05T02:21:04;99936.50;;;11.53;64.98
52032;BME280;38044;45.148;39.604;2023-04-05T02:23:31;100057.19;;;12.48;64.27
52032;BME280;38044;45.148;39.604;2023-04-05T02:25:59;100044.66;;;12.60;63.87
52032;BME280;38044;45.148;39.604;2023-04-05T02:28:25;100097.16;;;12.72;63.04
52032;BME280;38044;45.148;39.604;2023-04-05T02:30:51;100024.00;;;12.73;62.81
52032;BME280;38044;45.148;39.604;2023-04-05T02:33:17;100006.75;;;12.66;63.09
52032;BME280;38044;45.148;39.604;2023-04-05T02:35:43;99978.19;;;12.38;63.65
52032;BME280;38044;45.148;39.604;2023-04-05T02:38:09;99965.97;;;12.15;65.53
52032;BME280;38044;45.148;39.604;2023-04-05T02:40:36;99895.63;;;11.42;66.80
52032;BME280;38044;45.148;39.604;2023-04-05T02:43:02;99921.91;;;11.36;67.32
52032;BME280;38044;45.148;39.604;2023-04-05T02:45:28;100019.34;;;12.04;66.65
52032;BME280;38044;45.148;39.604;2023-04-05T02:47:53;100007.81;;;12.12;66.19
52032;BME280;38044;45.148;39.604;2023-04-05T02:50:20;100030.00;;;12.18;65.91
52032;BME280;38044;45.148;39.604;2023-04-05T02:52:48;100001.47;;;12.17;65.55
52032;BME280;38044;45.148;39.604;2023-04-05T02:55:14;99885.81;;;11.46;65.96
52032;BME280;38044;45.148;39.604;2023-04-05T02:57:42;100023.34;;;12.24;65.78
52032;BME280;38044;45.148;39.604;2023-04-05T03:00:09;100011.63;;;12.20;66.21
52032;BME280;38044;45.148;39.604;2023-04-05T03:02:36;99902.75;;;11.46;66.18
52032;BME280;38044;45.148;39.604;2023-04-05T03:05:05;99973.25;;;12.06;66.11
52032;BME280;38044;45.148;39.604;2023-04-05T03:07:32;100037.78;;;12.20;65.80
52032;BME280;38044;45.148;39.604;2023-04-05T03:09:58;99841.16;;;11.27;65.84
52032;BME280;38044;45.148;39.604;2023-04-05T03:12:24;99918.81;;;11.78;65.58
52032;BME280;38044;45.148;39.604;2023-04-05T03:14:50;99814.72;;;11.38;65.56
52032;BME280;38044;45.148;39.604;2023-04-05T03:17:16;99899.09;;;12.00;65.72
52032;BME280;38044;45.148;39.604;2023-04-05T03:19:42;99880.66;;;11.84;66.28
52032;BME280;38044;45.148;39.604;2023-04-05T03:22:10;99883.34;;;11.76;66.29
52032;BME280;38044;45.148;39.604;2023-04-05T03:24:35;99916.03;;;12.00;66.45
52032;BME280;38044;45.148;39.604;2023-04-05T03:27:02;99908.13;;;12.04;66.26
52032;BME280;38044;45.148;39.604;2023-04-05T03:29:30;99900.03;;;11.95;66.46
52032;BME280;38044;45.148;39.604;2023-04-05T03:31:56;99867.41;;;11.97;66.13
52032;BME280;38044;45.148;39.604;2023-04-05T03:34:23;99866.13;;;12.03;65.53
52032;BME280;38044;45.148;39.604;2023-04-05T03:36:54;99864.38;;;12.15;65.35
52032;BME280;38044;45.148;39.604;2023-04-05T03:39:20;99857.09;;;12.33;64.42
52032;BME280;38044;45.148;39.604;2023-04-05T03:41:46;99727.81;;;11.64;64.18
52032;BME280;38044;45.148;39.604;2023-04-05T03:44:11;99847.81;;;12.60;63.84
52032;BME280;38044;45.148;39.604;2023-04-05T03:46:37;99882.88;;;13.16;63.00
52032;BME280;38044;45.148;39.604;2023-04-05T03:49:03;99886.31;;;13.34;62.60
52032;BME280;38044;45.148;39.604;2023-04-05T03:51:30;99839.34;;;13.26;61.14
52032;BME280;38044;45.148;39.604;2023-04-05T03:53:57;99767.00;;;13.41;60.23
52032;BME280;38044;45.148;39.604;2023-04-05T03:56:22;99811.34;;;14.15;59.37
52032;BME280;38044;45.148;39.604;2023-04-05T03:58:51;99754.91;;;14.59;57.74
52032;BME280;38044;45.148;39.604;2023-04-05T04:01:17;99867.78;;;15.81;56.48
52032;BME280;38044;45.148;39.604;2023-04-05T04:03:43;99919.22;;;16.62;55.44
52032;BME280;38044;45.148;39.604;2023-04-05T04:06:09;99919.75;;;16.96;54.71
52032;BME280;38044;45.148;39.604;2023-04-05T04:08:35;99892.94;;;17.26;52.85
52032;BME280;38044;45.148;39.604;2023-04-05T04:11:02;99900.47;;;17.32;52.12
52032;BME280;38044;45.148;39.604;2023-04-05T04:13:28;99931.66;;;17.07;52.25
52032;BME280;38044;45.148;39.604;2023-04-05T04:15:54;99885.75;;;16.14;53.98
52032;BME280;38044;45.148;39.604;2023-04-05T04:18:20;99921.75;;;15.74;55.19
52032;BME280;38044;45.148;39.604;2023-04-05T04:20:46;99907.06;;;15.26;55.86
52032;BME280;38044;45.148;39.604;2023-04-05T04:23:12;99823.16;;;14.43;56.56
52032;BME280;38044;45.148;39.604;2023-04-05T04:25:38;99900.72;;;14.97;56.88
52032;BME280;38044;45.148;39.604;2023-04-05T04:28:05;99906.25;;;14.55;57.62
52032;BME280;38044;45.148;39.604;2023-04-05T04:30:32;99921.69;;;14.34;58.41
52032;BME280;38044;45.148;39.604;2023-04-05T04:33:03;99834.84;;;13.60;59.01
52032;BME280;38044;45.148;39.604;2023-04-05T04:35:31;99932.44;;;14.22;59.66
52032;BME280;38044;45.148;39.604;2023-04-05T04:38:06;99933.28;;;14.13;59.92
52032;BME280;38044;45.148;39.604;2023-04-05T04:40:34;99934.41;;;13.91;60.35
52032;BME280;38044;45.148;39.604;2023-04-05T04:43:07;99956.69;;;14.09;59.96
52032;BME280;38044;45.148;39.604;2023-04-05T04:45:47;99925.38;;;13.87;60.33
52032;BME280;38044;45.148;39.604;2023-04-05T04:48:14;99937.00;;;13.88;60.69
52032;BME280;38044;45.148;39.604;2023-04-05T04:50:42;99926.91;;;13.67;61.16
52032;BME280;38044;45.148;39.604;2023-04-05T04:53:11;99904.09;;;13.56;61.46
52032;BME280;38044;45.148;39.604;2023-04-05T04:55:40;99923.56;;;13.70;60.67
52032;BME280;38044;45.148;39.604;2023-04-05T04:58:10;99939.31;;;13.68;60.69
52032;BME280;38044;45.148;39.604;2023-04-05T05:00:41;99922.56;;;13.54;61.16
52032;BME280;38044;45.148;39.604;2023-04-05T05:03:09;99926.09;;;13.46;61.02
52032;BME280;38044;45.148;39.604;2023-04-05T05:05:44;99862.28;;;13.03;60.92
52032;BME280;38044;45.148;39.604;2023-04-05T05:08:12;99939.88;;;13.53;61.07
52032;BME280;38044;45.148;39.604;2023-04-05T05:10:38;99939.41;;;13.51;61.01
52032;BME280;38044;45.148;39.604;2023-04-05T05:13:04;99893.78;;;13.28;61.66
52032;BME280;38044;45.148;39.604;2023-04-05T05:15:30;99780.00;;;12.41;61.46
52032;BME280;38044;45.148;39.604;2023-04-05T05:17:56;99940.06;;;13.48;61.49
52032;BME280;38044;45.148;39.604;2023-04-05T05:20:25;99951.31;;;13.50;61.53
52032;BME280;38044;45.148;39.604;2023-04-05T05:22:54;99935.81;;;13.38;61.57
52032;BME280;38044;45.148;39.604;2023-04-05T05:25:20;99990.81;;;13.63;61.56
52032;BME280;38044;45.148;39.604;2023-04-05T05:27:48;100074.19;;;13.65;61.96
52032;BME280;38044;45.148;39.604;2023-04-05T05:30:15;100145.91;;;13.27;63.15
52032;BME280;38044;45.148;39.604;2023-04-05T05:32:41;100206.25;;;13.32;63.50
52032;BME280;38044;45.148;39.604;2023-04-05T05:35:07;100018.31;;;12.31;63.20
52032;BME280;38044;45.148;39.604;2023-04-05T05:37:34;100168.44;;;13.14;63.58
52032;BME280;38044;45.148;39.604;2023-04-05T05:40:01;100165.09;;;13.17;64.64
52032;BME280;38044;45.148;39.604;2023-04-05T05:42:27;100093.31;;;12.55;64.96
52032;BME280;38044;45.148;39.604;2023-04-05T05:44:52;100092.22;;;12.48;65.88
52032;BME280;38044;45.148;39.604;2023-04-05T05:47:18;100133.19;;;13.19;66.64
52032;BME280;38044;45.148;39.604;2023-04-05T05:49:44;100048.75;;;12.58;67.80
52032;BME280;38044;45.148;39.604;2023-04-05T05:52:10;100154.47;;;13.12;69.13
52032;BME280;38044;45.148;39.604;2023-04-05T05:54:36;100139.69;;;13.10;70.58
52032;BME280;38044;45.148;39.604;2023-04-05T05:57:02;100074.78;;;12.71;70.18
52032;BME280;38044;45.148;39.604;2023-04-05T05:59:28;100109.06;;;13.14;69.79
52032;BME280;38044;45.148;39.604;2023-04-05T06:01:54;99982.94;;;12.42;71.04
52032;BME280;38044;45.148;39.604;2023-04-05T06:04:20;100115.75;;;13.34;71.34
52032;BME280;38044;45.148;39.604;2023-04-05T06:06:46;99983.41;;;12.61;70.54
52032;BME280;38044;45.148;39.604;2023-04-05T06:09:13;100151.09;;;13.67;69.77
52032;BME280;38044;45.148;39.604;2023-04-05T06:11:40;100173.31;;;13.73;69.81
52032;BME280;38044;45.148;39.604;2023-04-05T06:14:06;100193.34;;;13.72;69.93
52032;BME280;38044;45.148;39.604;2023-04-05T06:16:32;100199.56;;;13.55;70.03
52032;BME280;38044;45.148;39.604;2023-04-05T06:19:00;100098.59;;;12.87;69.75
52032;BME280;38044;45.148;39.604;2023-04-05T06:21:26;100171.94;;;13.49;69.06
52032;BME280;38044;45.148;39.604;2023-04-05T06:23:52;100181.78;;;13.54;69.88
52032;BME280;38044;45.148;39.604;2023-04-05T06:26:20;100190.03;;;13.66;69.41
52032;BME280;38044;45.148;39.604;2023-04-05T06:28:48;100128.09;;;13.44;69.70
52032;BME280;38044;45.148;39.604;2023-04-05T06:31:15;100151.56;;;13.78;70.91
52032;BME280;38044;45.148;39.604;2023-04-05T06:33:42;100076.84;;;13.35;71.99
52032;BME280;38044;45.148;39.604;2023-04-05T06:36:09;100147.56;;;13.84;72.45
52032;BME280;38044;45.148;39.604;2023-04-05T06:38:35;100137.84;;;13.92;72.59
52032;BME280;38044;45.148;39.604;2023-04-05T06:41:01;100143.69;;;14.03;72.88
52032;BME280;38044;45.148;39.604;2023-04-05T06:43:28;100102.28;;;13.81;73.28
52032;BME280;38044;45.148;39.604;2023-04-05T06:45:57;100132.38;;;14.09;73.14
52032;BME280;38044;45.148;39.604;2023-04-05T06:48:23;100143.75;;;14.24;72.97
52032;BME280;38044;45.148;39.604;2023-04-05T06:51:00;100151.97;;;14.36;72.72
52032;BME280;38044;45.148;39.604;2023-04-05T06:53:27;100142.84;;;14.19;72.46
52032;BME280;38044;45.148;39.604;2023-04-05T06:55:58;100164.38;;;14.37;72.95
52032;BME280;38044;45.148;39.604;2023-04-05T06:58:26;100139.09;;;14.33;72.45
52032;BME280;38044;45.148;39.604;2023-04-05T07:00:55;100176.88;;;14.50;73.17
52032;BME280;38044;45.148;39.604;2023-04-05T07:03:21;100154.94;;;14.52;73.34
52032;BME280;38044;45.148;39.604;2023-04-05T07:05:52;100133.16;;;14.48;73.16
52032;BME280;38044;45.148;39.604;2023-04-05T07:08:19;100152.72;;;14.75;72.48
52032;BME280;38044;45.148;39.604;2023-04-05T07:10:46;100112.75;;;14.59;72.40
52032;BME280;38044;45.148;39.604;2023-04-05T07:13:12;100003.88;;;13.91;73.04
52032;BME280;38044;45.148;39.604;2023-04-05T07:15:38;100116.31;;;14.72;73.92
52032;BME280;38044;45.148;39.604;2023-04-05T07:18:04;100090.88;;;14.64;74.22
52032;BME280;38044;45.148;39.604;2023-04-05T07:20:30;100104.28;;;14.82;73.61
52032;BME280;38044;45.148;39.604;2023-04-05T07:22:57;99958.69;;;14.00;72.87
52032;BME280;38044;45.148;39.604;2023-04-05T07:25:23;100026.81;;;14.56;72.71
52032;BME280;38044;45.148;39.604;2023-04-05T07:27:49;99921.41;;;13.85;72.71
52032;BME280;38044;45.148;39.604;2023-04-05T07:30:15;100058.75;;;14.84;71.59
52032;BME280;38044;45.148;39.604;2023-04-05T07:32:43;100029.06;;;14.75;71.87
52032;BME280;38044;45.148;39.604;2023-04-05T07:35:09;100040.22;;;14.95;71.63
52032;BME280;38044;45.148;39.604;2023-04-05T07:37:36;100062.69;;;15.07;70.44
52032;BME280;38044;45.148;39.604;2023-04-05T07:40:03;100046.03;;;15.18;70.26
52032;BME280;38044;45.148;39.604;2023-04-05T07:42:30;99926.69;;;14.44;70.25
52032;BME280;38044;45.148;39.604;2023-04-05T07:44:56;100004.72;;;15.08;70.07
52032;BME280;38044;45.148;39.604;2023-04-05T07:47:22;99908.22;;;14.46;69.88
52032;BME280;38044;45.148;39.604;2023-04-05T07:49:48;100041.59;;;15.46;69.54
52032;BME280;38044;45.148;39.604;2023-04-05T07:52:14;100016.06;;;15.47;69.14
52032;BME280;38044;45.148;39.604;2023-04-05T07:54:40;100051.44;;;15.63;68.92
52032;BME280;38044;45.148;39.604;2023-04-05T07:57:08;100035.72;;;15.57;69.21
52032;BME280;38044;45.148;39.604;2023-04-05T07:59:35;100052.25;;;15.76;69.01
52032;BME280;38044;45.148;39.604;2023-04-05T08:02:02;100047.75;;;15.80;68.25
52032;BME280;38044;45.148;39.604;2023-04-05T08:04:28;99958.63;;;15.29;68.42
52032;BME280;38044;45.148;39.604;2023-04-05T08:06:53;100043.44;;;15.79;68.42
52032;BME280;38044;45.148;39.604;2023-04-05T08:09:19;99966.53;;;15.22;68.06
52032;BME280;38044;45.148;39.604;2023-04-05T08:11:47;100055.91;;;15.80;68.25
52032;BME280;38044;45.148;39.604;2023-04-05T08:14:13;99917.28;;;14.83;68.87
52032;BME280;38044;45.148;39.604;2023-04-05T08:16:38;100053.78;;;15.52;69.14
52032;BME280;38044;45.148;39.604;2023-04-05T08:19:04;100073.13;;;15.63;69.70
52032;BME280;38044;45.148;39.604;2023-04-05T08:21:30;100043.84;;;15.44;70.14
52032;BME280;38044;45.148;39.604;2023-04-05T08:24:05;100049.06;;;15.62;71.53
52032;BME280;38044;45.148;39.604;2023-04-05T08:26:31;100046.56;;;15.57;71.42
52032;BME280;38044;45.148;39.604;2023-04-05T08:28:57;100037.53;;;15.40;71.54
52032;BME280;38044;45.148;39.604;2023-04-05T08:31:22;100044.50;;;15.41;71.22
52032;BME280;38044;45.148;39.604;2023-04-05T08:33:49;100051.28;;;15.47;71.38
52032;BME280;38044;45.148;39.604;2023-04-05T08:36:15;100093.47;;;15.69;71.67
52032;BME280;38044;45.148;39.604;2023-04-05T08:38:41;100089.78;;;15.53;71.51
52032;BME280;38044;45.148;39.604;2023-04-05T08:41:17;100089.00;;;15.52;71.45
52032;BME280;38044;45.148;39.604;2023-04-05T08:44:03;100139.69;;;15.85;71.48
52032;BME280;38044;45.148;39.604;2023-04-05T08:46:33;100168.09;;;15.79;71.98
52032;BME280;38044;45.148;39.604;2023-04-05T08:49:03;100170.50;;;15.81;72.07
52032;BME280;38044;45.148;39.604;2023-04-05T08:51:30;100160.22;;;15.74;72.37
52032;BME280;38044;45.148;39.604;2023-04-05T08:53:58;100155.13;;;15.72;72.53
52032;BME280;38044;45.148;39.604;2023-04-05T08:56:34;100121.72;;;15.47;73.10
52032;BME280;38044;45.148;39.604;2023-04-05T08:59:09;100052.78;;;15.12;72.97
52032;BME280;38044;45.148;39.604;2023-04-05T09:01:42;100144.28;;;15.85;72.85
52032;BME280;38044;45.148;39.604;2023-04-05T09:04:15;100144.09;;;16.02;72.50
52032;BME280;38044;45.148;39.604;2023-04-05T09:06:44;100134.97;;;15.94;72.18
52032;BME280;38044;45.148;39.604;2023-04-05T09:09:11;100099.25;;;15.80;71.57
52032;BME280;38044;45.148;39.604;2023-04-05T09:11:37;100203.91;;;16.67;70.96
52032;BME280;38044;45.148;39.604;2023-04-05T09:14:07;100078.13;;;16.10;70.16
52032;BME280;38044;45.148;39.604;2023-04-05T09:16:40;100145.53;;;16.73;70.48
52032;BME280;38044;45.148;39.604;2023-04-05T09:19:07;100196.38;;;17.13;69.70
52032;BME280;38044;45.148;39.604;2023-04-05T09:21:56;100210.69;;;17.38;70.31
52032;BME280;38044;45.148;39.604;2023-04-05T09:24:42;100188.00;;;17.18;71.42
52032;BME280;38044;45.148;39.604;2023-04-05T09:27:12;100218.25;;;17.45;71.70
52032;BME280;38044;45.148;39.604;2023-04-05T09:29:46;100143.00;;;17.17;71.80
52032;BME280;38044;45.148;39.604;2023-04-05T09:32:13;100184.41;;;17.70;71.59
52032;BME280;38044;45.148;39.604;2023-04-05T09:34:41;100172.69;;;17.82;71.03
52032;BME280;38044;45.148;39.604;2023-04-05T09:37:14;100144.72;;;17.82;71.57
52032;BME280;38044;45.148;39.604;2023-04-05T09:39:42;100152.09;;;17.81;69.18
52032;BME280;38044;45.148;39.604;2023-04-05T09:45:00;100184.06;;;18.00;69.01
52032;BME280;38044;45.148;39.604;2023-04-05T09:47:31;100167.38;;;17.86;68.48
52032;BME280;38044;45.148;39.604;2023-04-05T09:50:00;100196.59;;;18.05;67.78
52032;BME280;38044;45.148;39.604;2023-04-05T09:52:28;100174.38;;;17.87;66.57
52032;BME280;38044;45.148;39.604;2023-04-05T09:54:58;100052.81;;;17.11;67.17
52032;BME280;38044;45.148;39.604;2023-04-05T09:57:27;100054.69;;;17.23;65.04
52032;BME280;38044;45.148;39.604;2023-04-05T09:59:56;100166.13;;;17.99;65.93
52032;BME280;38044;45.148;39.604;2023-04-05T10:02:22;100123.47;;;17.71;63.70
52032;BME280;38044;45.148;39.604;2023-04-05T10:04:48;100170.88;;;18.02;63.06
52032;BME280;38044;45.148;39.604;2023-04-05T10:07:18;100174.91;;;18.08;63.11
52032;BME280;38044;45.148;39.604;2023-04-05T10:09:45;100172.72;;;18.14;61.55
52032;BME280;38044;45.148;39.604;2023-04-05T10:12:17;100178.34;;;18.21;60.87
52032;BME280;38044;45.148;39.604;2023-04-05T10:14:46;100150.88;;;18.10;60.40
52032;BME280;38044;45.148;39.604;2023-04-05T10:17:15;100042.25;;;17.54;60.09
52032;BME280;38044;45.148;39.604;2023-04-05T10:27:53;100170.06;;;18.49;60.49
52032;BME280;38044;45.148;39.604;2023-04-05T10:30:23;100155.69;;;18.33;59.89
52032;BME280;38044;45.148;39.604;2023-04-05T10:33:05;100160.88;;;18.38;59.89
52032;BME280;38044;45.148;39.604;2023-04-05T10:38:27;100172.88;;;18.37;60.27
52032;BME280;38044;45.148;39.604;2023-04-05T10:41:08;100147.72;;;18.08;60.22
52032;BME280;38044;45.148;39.604;2023-04-05T10:43:36;100214.56;;;18.25;61.63
52032;BME280;38044;45.148;39.604;2023-04-05T10:46:05;100204.66;;;18.01;61.73
52032;BME280;38044;45.148;39.604;2023-04-05T10:51:36;100198.75;;;17.83;62.78
52032;BME280;38044;45.148;39.604;2023-04-05T10:54:06;100111.50;;;17.16;63.29
52032;BME280;38044;45.148;39.604;2023-04-05T10:56:33;100212.03;;;17.72;63.78
52032;BME280;38044;45.148;39.604;2023-04-05T10:58:59;100234.88;;;17.84;64.22
52032;BME280;38044;45.148;39.604;2023-04-05T11:01:26;100235.13;;;17.78;64.76
52032;BME280;38044;45.148;39.604;2023-04-05T11:03:52;100179.97;;;17.50;65.18
52032;BME280;38044;45.148;39.604;2023-04-05T11:06:31;100177.25;;;17.50;65.40
52032;BME280;38044;45.148;39.604;2023-04-05T11:09:13;100224.59;;;17.77;66.33
52032;BME280;38044;45.148;39.604;2023-04-05T11:11:42;100203.13;;;17.60;66.72
52032;BME280;38044;45.148;39.604;2023-04-05T11:14:22;100187.03;;;17.39;67.06
52032;BME280;38044;45.148;39.604;2023-04-05T11:16:54;100215.09;;;17.43;67.20
52032;BME280;38044;45.148;39.604;2023-04-05T11:20:05;100217.00;;;17.70;67.77
52032;BME280;38044;45.148;39.604;2023-04-05T11:22:36;100228.59;;;17.67;67.43
52032;BME280;38044;45.148;39.604;2023-04-05T11:25:08;100202.78;;;17.61;67.11
52032;BME280;38044;45.148;39.604;2023-04-05T11:27:59;100161.56;;;17.43;67.33
52032;BME280;38044;45.148;39.604;2023-04-05T11:30:54;100219.94;;;17.77;67.10
52032;BME280;38044;45.148;39.604;2023-04-05T11:36:07;100169.06;;;17.34;67.94
52032;BME280;38044;45.148;39.604;2023-04-05T11:38:38;100238.44;;;17.72;68.68
52032;BME280;38044;45.148;39.604;2023-04-05T11:41:15;100232.44;;;17.66;68.75
52032;BME280;38044;45.148;39.604;2023-04-05T11:43:47;100233.63;;;17.53;68.64
52032;BME280;38044;45.148;39.604;2023-04-05T11:46:14;100263.22;;;17.70;68.66
52032;BME280;38044;45.148;39.604;2023-04-05T11:48:40;100219.72;;;17.42;69.15
52032;BME280;38044;45.148;39.604;2023-04-05T11:51:10;100160.69;;;16.99;69.37
52032;BME280;38044;45.148;39.604;2023-04-05T11:53:37;100220.31;;;17.36;70.08
52032;BME280;38044;45.148;39.604;2023-04-05T11:56:09;100262.53;;;17.73;69.99
52032;BME280;38044;45.148;39.604;2023-04-05T11:58:45;100134.94;;;16.80;69.96
52032;BME280;38044;45.148;39.604;2023-04-05T12:01:12;100238.72;;;17.54;69.87
52032;BME280;38044;45.148;39.604;2023-04-05T12:03:38;100271.72;;;17.81;69.41
52032;BME280;38044;45.148;39.604;2023-04-05T12:06:05;100287.97;;;17.93;68.91
52032;BME280;38044;45.148;39.604;2023-04-05T12:08:45;100269.84;;;18.13;68.67
52032;BME280;38044;45.148;39.604;2023-04-05T12:11:28;100173.50;;;17.54;68.27
52032;BME280;38044;45.148;39.604;2023-04-05T12:14:00;100251.97;;;18.12;68.89
52032;BME280;38044;45.148;39.604;2023-04-05T12:16:27;100262.66;;;18.37;68.01
52032;BME280;38044;45.148;39.604;2023-04-05T12:18:57;100166.84;;;17.96;67.45
52032;BME280;38044;45.148;39.604;2023-04-05T12:21:24;100280.69;;;18.73;67.36
52032;BME280;38044;45.148;39.604;2023-04-05T12:23:51;100250.56;;;18.50;65.92
52032;BME280;38044;45.148;39.604;2023-04-05T12:26:18;100249.50;;;18.39;66.74
52032;BME280;38044;45.148;39.604;2023-04-05T12:28:54;100156.44;;;17.70;66.96
52032;BME280;38044;45.148;39.604;2023-04-05T12:31:43;100262.06;;;18.28;66.88
52032;BME280;38044;45.148;39.604;2023-04-05T12:34:12;100188.97;;;17.66;67.24
52032;BME280;38044;45.148;39.604;2023-04-05T12:36:40;100287.94;;;18.21;66.98
52032;BME280;38044;45.148;39.604;2023-04-05T12:39:09;100227.66;;;17.75;66.94
52032;BME280;38044;45.148;39.604;2023-04-05T12:41:35;100201.25;;;17.48;66.74
52032;BME280;38044;45.148;39.604;2023-04-05T12:46:44;100264.81;;;17.71;67.13
52032;BME280;38044;45.148;39.604;2023-04-05T12:49:10;100292.63;;;17.93;66.54
52032;BME280;38044;45.148;39.604;2023-04-05T12:51:43;100306.03;;;17.73;67.26
52032;BME280;38044;45.148;39.604;2023-04-05T12:54:19;100290.22;;;17.63;68.12
52032;BME280;38044;45.148;39.604;2023-04-05T12:56:46;100290.59;;;17.49;67.68
52032;BME280;38044;45.148;39.604;2023-04-05T12:59:14;100280.97;;;17.40;68.01
52032;BME280;38044;45.148;39.604;2023-04-05T13:01:40;100264.94;;;17.34;68.05
52032;BME280;38044;45.148;39.604;2023-04-05T13:04:06;100226.91;;;17.22;68.16
52032;BME280;38044;45.148;39.604;2023-04-05T13:06:32;100295.09;;;17.58;66.99
52032;BME280;38044;45.148;39.604;2023-04-05T13:08:57;100289.31;;;17.59;67.11
52032;BME280;38044;45.148;39.604;2023-04-05T13:11:23;100275.16;;;17.53;66.75
52032;BME280;38044;45.148;39.604;2023-04-05T13:13:49;100282.09;;;17.51;66.55
52032;BME280;38044;45.148;39.604;2023-04-05T13:16:15;100285.06;;;17.46;66.60
52032;BME280;38044;45.148;39.604;2023-04-05T13:18:41;100191.47;;;16.78;66.31
52032;BME280;38044;45.148;39.604;2023-04-05T13:21:07;100286.81;;;17.26;66.03
52032;BME280;38044;45.148;39.604;2023-04-05T13:23:35;100298.44;;;17.26;66.53
52032;BME280;38044;45.148;39.604;2023-04-05T13:26:01;100268.16;;;17.00;66.73